Whitehorse International Airport
CYXY : rendu visible

Aérodrome :











RETROUVEZ-NOUS SUR...

 
LOGIN :

S'inscrire | Disclaimer

   EN    FR    IT 

 









Légende :    VFR   VFR Marginal   IFR   IFR Intensif   IFR Très Intensif
Visi : 
Plafond : 
>= 8 km
>= 3000ft
5 à 8 km
1000 à 3000 ft
1500m à 5 km
500 à 1000 ft
800 à 1500m
200 à 500 ft
< 800m
< 200 ft
Symboles :   Orages  Brouillard  Fortes neiges  Fortes précipitations  Vent > 20 kt






- Altitude de l'aérodrome : 2317 ft
- Code IATA : YXY


CYXY - Whitehorse International

DERNIER METAR :
  • 050400Z 17010KT 40SM FEW070 SCT140 14/M06 A2980 RMK CU2AC2 SLP114 DENSITY ALT 2900FT

METARs EXPIRÉS :
  • 050300Z 17011KT 40SM SCT070 BKN140 15/M06 A2980 RMK CU3AC2 SLP113 DENSITY ALT 3000FT
  • 050200Z 15011G17KT 40SM SCT070 BKN140 15/M06 A2980 RMK CU4AC1 SLP115 DENSITY ALT 3100FT

TAF TAF CYXY
Valide du 05 à 00h jusqu'au 06 à 00h UTC


042341Z 0500/0524 15010KT P6SM BKN070
TEMPO 0500/0506 P6SM -SHRA
FM050600 17008KT P6SM FEW040
FM052100 14008KT P6SM BKN080
TEMPO 0521/0524 P6SM -SHRA RMK NXT FCST BY 050600Z
FIR CZEG / Amérique du Nord



MET'MAP, la Météo Aéronautique d'un coup d'oeil ! - Copyright ORBIFLY Décembre 2007 - Disclaimer

ORBIFLY MET'MAP TEAM :

Programmation & Développement : Alexandra Zaïnal
Sur une idée originale de : Baudouin d'Aumeries
Assistance à la programmation : Marc-Olivier Méhu
Soutien technique & logistique : Manuel Goepfert

Contact : metmap@orbifly.com




SOURCES & CREDITS :

   NOAA       Earth
Advisory